createdAt,value
2019-03-31T00:01:22.931Z,36.40
2019-03-31T00:03:49.375Z,29.80
2019-03-31T00:06:15.997Z,36.73
2019-03-31T00:08:42.453Z,37.20
2019-03-31T00:11:09.242Z,31.03
2019-03-31T00:13:35.661Z,31.20
2019-03-31T00:16:02.744Z,31.53
2019-03-31T00:18:29.218Z,35.20
2019-03-31T00:20:55.560Z,33.33
2019-03-31T00:23:22.162Z,34.97
2019-03-31T00:25:48.526Z,30.23
2019-03-31T00:28:16.041Z,35.70
2019-03-31T00:30:42.902Z,33.53
2019-03-31T00:33:09.527Z,31.50
2019-03-31T00:35:36.283Z,32.07
2019-03-31T00:38:03.232Z,35.47
2019-03-31T00:40:29.868Z,34.93
2019-03-31T00:42:56.205Z,31.00
2019-03-31T00:45:22.869Z,34.67
2019-03-31T00:47:49.643Z,33.20
2019-03-31T00:50:16.607Z,34.73
2019-03-31T00:52:42.956Z,36.37
2019-03-31T00:55:09.579Z,31.97
2019-03-31T00:57:35.961Z,35.70
2019-03-31T01:00:06.979Z,42.40
2019-03-31T01:02:35.532Z,37.63
2019-03-31T01:05:04.670Z,46.73
2019-03-31T01:07:31.579Z,34.37
2019-03-31T01:09:58.057Z,33.93
2019-03-31T01:12:25.391Z,35.50
2019-03-31T01:14:51.946Z,33.63
2019-03-31T01:17:19.664Z,29.73
2019-03-31T01:19:46.224Z,31.47
2019-03-31T01:22:12.722Z,29.63
2019-03-31T01:24:39.192Z,31.50
2019-03-31T01:27:08.700Z,29.43
2019-03-31T01:29:35.267Z,33.30
2019-03-31T01:32:01.793Z,27.67
2019-03-31T01:34:28.101Z,32.03
2019-03-31T01:36:54.850Z,28.30
2019-03-31T01:39:22.679Z,31.40
2019-03-31T01:41:49.635Z,32.43
2019-03-31T01:44:17.086Z,30.60
2019-03-31T01:46:43.417Z,33.97
2019-03-31T01:49:09.775Z,33.93
2019-03-31T01:51:36.079Z,30.97
2019-03-31T01:54:02.995Z,33.60
2019-03-31T01:56:29.663Z,29.67
2019-03-31T01:58:56.643Z,35.20
2019-03-31T02:01:23.499Z,32.50
2019-03-31T02:03:50.113Z,29.30
2019-03-31T02:06:16.457Z,34.60
2019-03-31T02:08:43.061Z,31.33
2019-03-31T02:11:09.447Z,33.27
2019-03-31T02:13:36.034Z,29.90
2019-03-31T02:16:02.386Z,28.27
2019-03-31T02:18:28.714Z,32.70
2019-03-31T02:20:55.064Z,26.20
2019-03-31T02:23:21.788Z,30.90
2019-03-31T02:25:49.549Z,29.67
2019-03-31T02:28:15.975Z,32.60
2019-03-31T02:30:42.289Z,32.07
2019-03-31T02:33:09.063Z,31.07
2019-03-31T02:35:35.382Z,27.90
2019-03-31T02:38:01.746Z,33.40
2019-03-31T02:40:28.112Z,29.20
2019-03-31T02:42:54.563Z,31.37
2019-03-31T02:45:21.326Z,29.27
2019-03-31T02:47:47.698Z,28.60
2019-03-31T02:50:39.998Z,29.57
2019-03-31T02:53:06.364Z,31.00
2019-03-31T02:55:33.027Z,29.27
2019-03-31T02:57:59.670Z,29.13
2019-03-31T03:00:26.270Z,31.00
2019-03-31T03:02:53.804Z,28.10
2019-03-31T03:05:22.285Z,28.33
2019-03-31T03:07:49.901Z,29.53
2019-03-31T03:10:17.513Z,28.17
2019-03-31T03:12:44.095Z,25.63
2019-03-31T03:15:14.263Z,22.73
2019-03-31T03:17:40.991Z,28.70
2019-03-31T03:20:07.760Z,28.13
2019-03-31T03:22:34.111Z,27.07
2019-03-31T03:25:00.531Z,29.03
2019-03-31T03:27:26.921Z,31.33
2019-03-31T03:29:53.273Z,30.47
2019-03-31T03:32:19.677Z,28.93
2019-03-31T03:34:46.032Z,30.73
2019-03-31T03:37:12.411Z,29.77
2019-03-31T03:39:39.122Z,30.93
2019-03-31T03:42:05.838Z,28.97
2019-03-31T03:44:32.284Z,25.70
2019-03-31T03:46:58.618Z,27.90
2019-03-31T03:49:24.955Z,26.80
2019-03-31T03:51:51.312Z,34.43
2019-03-31T03:54:17.977Z,29.37
2019-03-31T03:56:45.382Z,28.30
2019-03-31T03:59:12.227Z,25.70
2019-03-31T04:01:38.851Z,25.27
2019-03-31T04:04:05.196Z,26.23
2019-03-31T04:06:32.147Z,30.90
2019-03-31T04:08:58.453Z,25.23
2019-03-31T04:11:25.797Z,26.30
2019-03-31T04:13:52.555Z,27.43
2019-03-31T04:16:18.968Z,27.03
2019-03-31T04:18:45.337Z,29.63
2019-03-31T04:21:11.704Z,25.53
2019-03-31T04:23:38.066Z,33.17
2019-03-31T04:26:04.441Z,24.30
2019-03-31T04:28:30.805Z,25.40
2019-03-31T04:30:57.273Z,25.27
2019-03-31T04:33:23.628Z,26.80
2019-03-31T04:35:49.990Z,25.53
2019-03-31T04:38:16.326Z,36.40
2019-03-31T04:40:43.530Z,27.37
2019-03-31T04:43:11.209Z,29.23
2019-03-31T04:45:37.578Z,31.93
2019-03-31T04:48:03.967Z,30.63
2019-03-31T04:50:30.289Z,32.40
2019-03-31T04:52:56.636Z,31.47
2019-03-31T04:55:22.938Z,30.47
2019-03-31T04:57:49.338Z,29.73
2019-03-31T05:00:16.082Z,30.67
2019-03-31T05:02:42.416Z,29.50
2019-03-31T05:05:08.786Z,30.77
2019-03-31T05:07:35.097Z,30.70
2019-03-31T05:10:04.277Z,30.53
2019-03-31T05:12:30.958Z,32.03
2019-03-31T05:14:57.385Z,33.50
2019-03-31T05:17:24.034Z,33.30
2019-03-31T05:19:50.387Z,30.10
2019-03-31T05:22:16.719Z,31.97
2019-03-31T05:24:43.052Z,29.63
2019-03-31T05:27:09.488Z,29.00
2019-03-31T05:29:35.810Z,29.23
2019-03-31T05:32:02.660Z,30.23
2019-03-31T05:34:29.362Z,27.57
2019-03-31T05:36:55.677Z,29.27
2019-03-31T05:39:22.349Z,29.40
2019-03-31T05:41:48.983Z,27.17
2019-03-31T05:44:15.330Z,31.90
2019-03-31T05:46:41.632Z,35.23
2019-03-31T05:49:08.399Z,24.83
2019-03-31T05:51:35.123Z,27.23
2019-03-31T05:54:01.867Z,28.27
2019-03-31T05:56:28.506Z,25.67
2019-03-31T05:58:55.143Z,27.73
2019-03-31T06:01:21.717Z,27.47
2019-03-31T06:03:48.033Z,30.20
2019-03-31T06:06:14.382Z,32.93
2019-03-31T06:08:41.084Z,34.30
2019-03-31T06:11:07.790Z,29.97
2019-03-31T06:13:34.186Z,30.00
2019-03-31T06:16:00.812Z,26.83
2019-03-31T06:18:27.150Z,26.83
2019-03-31T06:20:53.879Z,37.60
2019-03-31T06:23:20.196Z,25.40
2019-03-31T06:25:46.678Z,28.90
2019-03-31T06:28:13.375Z,27.53
2019-03-31T06:30:40.172Z,23.80
2019-03-31T06:33:06.538Z,33.83
2019-03-31T06:35:32.843Z,29.87
2019-03-31T06:38:00.951Z,29.37
2019-03-31T06:40:27.263Z,30.33
2019-03-31T06:42:53.656Z,26.47
2019-03-31T06:45:19.977Z,31.23
2019-03-31T06:47:46.551Z,31.07
2019-03-31T06:50:13.331Z,30.60
2019-03-31T06:52:39.789Z,29.93
2019-03-31T06:55:07.265Z,29.80
2019-03-31T06:57:33.595Z,30.77
2019-03-31T06:59:59.974Z,30.10
2019-03-31T07:02:27.558Z,35.50
2019-03-31T07:05:00.903Z,26.70
2019-03-31T07:07:23.813Z,28.40
2019-03-31T07:09:50.498Z,31.80
2019-03-31T07:12:17.157Z,32.60
2019-03-31T07:14:43.797Z,30.57
2019-03-31T07:17:10.120Z,31.87
2019-03-31T07:19:36.449Z,30.47
2019-03-31T07:22:02.827Z,29.37
2019-03-31T07:24:29.122Z,34.27
2019-03-31T07:26:55.485Z,32.67
2019-03-31T07:29:21.796Z,30.10
2019-03-31T07:31:48.430Z,34.00
2019-03-31T07:34:14.785Z,41.50
2019-03-31T07:36:41.230Z,29.00
2019-03-31T07:39:07.946Z,29.80
2019-03-31T07:41:34.734Z,39.60
2019-03-31T07:44:02.196Z,31.30
2019-03-31T07:46:31.406Z,40.70
2019-03-31T07:48:58.009Z,35.10
2019-03-31T07:51:24.359Z,33.07
2019-03-31T07:53:50.696Z,39.33
2019-03-31T07:56:18.440Z,37.77
2019-03-31T07:58:45.170Z,46.90
2019-03-31T08:01:11.450Z,47.23
2019-03-31T08:03:38.077Z,48.43
2019-03-31T08:06:04.872Z,53.63
2019-03-31T08:08:31.595Z,51.80
2019-03-31T08:10:57.924Z,54.43
2019-03-31T08:13:24.561Z,56.03
2019-03-31T08:15:51.198Z,54.67
2019-03-31T08:18:17.842Z,55.70
2019-03-31T08:20:44.188Z,59.77
2019-03-31T08:23:10.803Z,54.03
2019-03-31T08:25:37.168Z,51.73
2019-03-31T08:28:03.465Z,48.43
2019-03-31T08:30:29.817Z,55.07
2019-03-31T08:32:56.441Z,58.03
2019-03-31T08:35:23.078Z,57.10
2019-03-31T08:37:49.420Z,61.70
2019-03-31T08:40:17.222Z,58.27
2019-03-31T08:42:43.575Z,57.93
2019-03-31T08:45:12.209Z,55.43
2019-03-31T08:47:38.680Z,52.33
2019-03-31T08:50:06.549Z,46.53
2019-03-31T08:52:32.908Z,47.93
2019-03-31T08:54:59.561Z,49.10
2019-03-31T08:57:25.890Z,47.93
2019-03-31T08:59:52.276Z,52.40
2019-03-31T09:02:22.937Z,50.03
2019-03-31T09:04:49.315Z,55.80
2019-03-31T09:07:16.025Z,57.20
2019-03-31T09:09:42.377Z,55.63
2019-03-31T09:12:09.018Z,53.73
2019-03-31T09:14:35.836Z,49.63
2019-03-31T09:17:02.746Z,58.20
2019-03-31T09:19:29.435Z,61.10
2019-03-31T09:21:55.833Z,54.20
2019-03-31T09:24:22.155Z,60.20
2019-03-31T09:26:49.699Z,54.93
2019-03-31T09:29:16.046Z,51.87
2019-03-31T09:31:42.358Z,52.70
2019-03-31T09:34:08.802Z,60.47
2019-03-31T09:36:35.208Z,61.30
2019-03-31T09:39:01.812Z,66.57
2019-03-31T09:41:29.148Z,60.97
2019-03-31T09:43:55.824Z,60.50
2019-03-31T09:46:22.167Z,66.33
2019-03-31T09:48:48.912Z,59.77
2019-03-31T09:51:15.533Z,62.13
2019-03-31T09:53:41.965Z,71.13
2019-03-31T09:56:08.277Z,63.57
2019-03-31T09:58:34.679Z,59.47
2019-03-31T10:01:01.003Z,66.60
2019-03-31T10:03:27.378Z,67.53
2019-03-31T10:05:54.126Z,66.03
2019-03-31T10:08:22.268Z,65.03
2019-03-31T10:10:48.759Z,67.10
2019-03-31T10:13:15.196Z,66.97
2019-03-31T10:15:42.342Z,70.60
2019-03-31T10:18:08.968Z,73.10
2019-03-31T10:20:35.423Z,65.90
2019-03-31T10:23:01.730Z,72.90
2019-03-31T10:25:28.372Z,68.40
2019-03-31T10:27:54.736Z,62.03
2019-03-31T10:30:36.661Z,59.03
2019-03-31T10:33:04.805Z,65.67
2019-03-31T10:35:31.262Z,60.20
2019-03-31T10:37:57.705Z,58.27
2019-03-31T10:40:24.057Z,61.80
2019-03-31T10:42:50.417Z,67.60
2019-03-31T10:45:16.773Z,56.80
2019-03-31T10:47:43.470Z,56.00
2019-03-31T10:50:10.043Z,54.87
2019-03-31T10:52:36.395Z,63.90
2019-03-31T10:55:05.707Z,57.63
2019-03-31T10:57:32.374Z,62.57
2019-03-31T10:59:58.715Z,59.43
2019-03-31T11:02:25.042Z,59.07
2019-03-31T11:04:51.451Z,65.43
2019-03-31T11:07:18.099Z,54.20
2019-03-31T11:09:44.750Z,54.13
2019-03-31T11:12:11.086Z,63.77
2019-03-31T11:14:37.751Z,54.90
2019-03-31T11:17:04.433Z,56.80
2019-03-31T11:19:31.829Z,58.63
2019-03-31T11:22:02.696Z,59.03
2019-03-31T11:24:29.424Z,58.40
2019-03-31T11:26:56.121Z,55.43
2019-03-31T11:29:23.719Z,66.83
2019-03-31T11:31:50.476Z,60.03
2019-03-31T11:34:19.655Z,62.80
2019-03-31T11:36:46.346Z,62.33
2019-03-31T11:39:16.143Z,60.70
2019-03-31T11:41:41.269Z,63.03
2019-03-31T11:44:07.564Z,69.60
2019-03-31T11:46:33.953Z,64.13
2019-03-31T11:49:01.346Z,62.90
2019-03-31T11:51:27.698Z,62.47
2019-03-31T11:53:54.399Z,58.27
2019-03-31T11:56:20.729Z,58.57
2019-03-31T11:58:47.093Z,64.33
2019-03-31T12:01:13.456Z,60.87
2019-03-31T12:03:40.118Z,54.57
2019-03-31T12:06:06.419Z,57.67
2019-03-31T12:08:32.795Z,55.63
2019-03-31T12:10:59.112Z,59.63
2019-03-31T12:13:25.441Z,52.77
2019-03-31T12:15:52.091Z,56.13
2019-03-31T12:18:18.386Z,59.80
2019-03-31T12:20:44.783Z,58.53
2019-03-31T12:23:11.150Z,60.53
2019-03-31T12:25:37.471Z,59.17
2019-03-31T12:28:03.820Z,57.63
2019-03-31T12:30:30.136Z,57.27
2019-03-31T12:32:56.937Z,64.13
2019-03-31T12:35:23.296Z,61.07
2019-03-31T12:37:51.984Z,61.37
2019-03-31T12:40:31.821Z,56.30
2019-03-31T12:42:58.581Z,57.97
2019-03-31T12:45:25.277Z,53.67
2019-03-31T12:47:51.685Z,58.90
2019-03-31T12:50:18.089Z,52.40
2019-03-31T12:52:46.977Z,63.27
2019-03-31T12:55:13.740Z,64.90
2019-03-31T12:57:40.071Z,65.70
2019-03-31T13:00:07.196Z,60.47
2019-03-31T13:02:33.976Z,61.10
2019-03-31T13:05:01.650Z,61.90
2019-03-31T13:07:28.291Z,61.47
2019-03-31T13:09:54.602Z,55.60
2019-03-31T13:12:20.944Z,52.23
2019-03-31T13:14:47.276Z,52.90
2019-03-31T13:17:13.936Z,58.13
2019-03-31T13:19:40.357Z,58.90
2019-03-31T13:22:08.015Z,48.27
2019-03-31T13:24:34.354Z,55.83
2019-03-31T13:27:00.688Z,56.50
2019-03-31T13:29:27.320Z,54.47
2019-03-31T13:31:53.944Z,55.47
2019-03-31T13:34:20.705Z,57.10
2019-03-31T13:36:47.017Z,56.23
2019-03-31T13:39:13.379Z,54.63
2019-03-31T13:41:39.688Z,63.17
2019-03-31T13:44:06.433Z,52.37
2019-03-31T13:46:33.065Z,55.03
2019-03-31T13:49:00.000Z,59.87
2019-03-31T13:51:26.733Z,58.17
2019-03-31T13:53:53.203Z,58.03
2019-03-31T13:56:20.224Z,60.50
2019-03-31T13:58:52.520Z,56.83
2019-03-31T14:01:15.347Z,58.80
2019-03-31T14:03:41.701Z,56.27
2019-03-31T14:06:08.110Z,54.97
2019-03-31T14:08:34.465Z,56.73
2019-03-31T14:11:01.093Z,58.93
2019-03-31T14:13:27.943Z,58.30
2019-03-31T14:15:54.366Z,53.17
2019-03-31T14:18:20.770Z,48.87
2019-03-31T14:20:47.438Z,51.00
2019-03-31T14:23:14.190Z,46.93
2019-03-31T14:25:40.839Z,51.57
2019-03-31T14:28:07.655Z,45.20
2019-03-31T14:30:34.107Z,50.67
2019-03-31T14:33:00.834Z,44.63
2019-03-31T14:35:27.549Z,46.13
2019-03-31T14:37:54.844Z,45.70
2019-03-31T14:40:21.578Z,41.80
2019-03-31T14:42:47.930Z,42.37
2019-03-31T14:45:30.274Z,44.73
2019-03-31T14:48:00.026Z,43.80
2019-03-31T14:50:35.740Z,43.70
2019-03-31T14:53:03.600Z,46.83
2019-03-31T14:55:29.946Z,43.13
2019-03-31T14:57:56.257Z,42.43
2019-03-31T15:00:22.597Z,48.93
2019-03-31T15:02:48.942Z,42.87
2019-03-31T15:05:15.608Z,45.97
2019-03-31T15:07:41.984Z,41.43
2019-03-31T15:10:08.442Z,46.43
2019-03-31T15:12:34.766Z,46.30
2019-03-31T15:15:01.405Z,43.50
2019-03-31T15:17:28.109Z,42.53
2019-03-31T15:19:54.604Z,44.33
2019-03-31T15:22:21.079Z,42.60
2019-03-31T15:24:47.790Z,39.70
2019-03-31T15:27:14.587Z,40.90
2019-03-31T15:29:40.999Z,40.90
2019-03-31T15:32:07.397Z,39.53
2019-03-31T15:34:33.723Z,39.80
2019-03-31T15:37:00.081Z,41.30
2019-03-31T15:39:26.581Z,39.70
2019-03-31T15:41:52.982Z,37.93
2019-03-31T15:47:17.529Z,35.77
2019-03-31T15:49:43.863Z,37.53
2019-03-31T15:52:10.229Z,37.50
2019-03-31T15:54:36.697Z,32.63
2019-03-31T15:57:05.781Z,35.80
2019-03-31T15:59:32.674Z,30.53
2019-03-31T16:01:59.067Z,21.87
2019-03-31T16:04:25.362Z,20.40
2019-03-31T16:06:52.010Z,16.20
2019-03-31T16:09:23.615Z,21.00
2019-03-31T16:11:53.629Z,26.20
2019-03-31T16:14:20.035Z,18.17
2019-03-31T16:16:52.075Z,20.70
2019-03-31T16:19:31.357Z,14.60
2019-03-31T16:21:59.526Z,15.60
2019-03-31T16:24:46.182Z,13.83
2019-03-31T16:27:18.147Z,15.73
2019-03-31T16:29:45.277Z,15.40
2019-03-31T16:32:11.676Z,17.73
2019-03-31T16:34:38.649Z,19.33
2019-03-31T16:37:08.261Z,15.83
2019-03-31T16:39:37.903Z,15.70
2019-03-31T16:42:03.327Z,14.00
2019-03-31T16:44:29.677Z,21.60
2019-03-31T16:46:56.378Z,11.40
2019-03-31T16:49:23.115Z,13.67
2019-03-31T16:51:49.901Z,18.70
2019-03-31T16:54:16.598Z,16.40
2019-03-31T16:56:45.975Z,14.43
2019-03-31T16:59:12.726Z,11.03
2019-03-31T17:01:39.638Z,19.60
2019-03-31T17:04:06.396Z,11.67
2019-03-31T17:06:32.815Z,11.83
2019-03-31T17:08:59.523Z,12.40
2019-03-31T17:11:26.187Z,12.23
2019-03-31T17:13:52.897Z,14.20
2019-03-31T17:16:19.294Z,8.07
2019-03-31T17:18:46.395Z,13.87
2019-03-31T17:21:13.988Z,9.73
2019-03-31T17:23:40.449Z,13.43
2019-03-31T17:26:07.071Z,8.27
2019-03-31T17:28:43.451Z,9.40
2019-03-31T17:31:05.889Z,8.07
2019-03-31T17:33:32.750Z,9.40
2019-03-31T17:36:00.112Z,10.90
2019-03-31T17:38:26.751Z,10.20
2019-03-31T17:40:54.187Z,8.20
2019-03-31T17:43:20.858Z,6.87
2019-03-31T17:45:47.896Z,12.50
2019-03-31T17:48:14.970Z,10.37
2019-03-31T17:50:43.478Z,6.93
2019-03-31T17:53:11.252Z,14.33
2019-03-31T17:55:38.019Z,9.07
2019-03-31T17:58:04.662Z,8.87
2019-03-31T18:00:32.096Z,5.87
2019-03-31T18:02:58.858Z,8.47
2019-03-31T18:05:25.201Z,5.80
2019-03-31T18:07:51.608Z,7.90
2019-03-31T18:10:27.361Z,10.43
2019-03-31T18:12:54.253Z,6.37
2019-03-31T18:15:20.753Z,10.17
2019-03-31T18:17:47.294Z,8.30
2019-03-31T18:20:13.684Z,9.07
2019-03-31T18:22:40.516Z,9.90
2019-03-31T18:25:07.832Z,6.50
2019-03-31T18:27:34.284Z,8.03
2019-03-31T18:30:00.663Z,6.93
2019-03-31T18:32:27.143Z,7.70
2019-03-31T18:34:53.948Z,6.70
2019-03-31T18:37:22.390Z,13.03
2019-03-31T18:39:49.109Z,8.63
2019-03-31T18:42:16.551Z,9.00
2019-03-31T18:44:43.929Z,6.27
2019-03-31T18:47:10.315Z,9.10
2019-03-31T18:49:37.422Z,6.03
2019-03-31T18:52:03.907Z,14.57
2019-03-31T18:54:33.462Z,8.87
2019-03-31T18:57:08.227Z,14.87
2019-03-31T18:59:40.052Z,8.23
2019-03-31T19:02:12.497Z,10.37
2019-03-31T19:05:00.638Z,7.70
2019-03-31T19:07:44.492Z,9.43
2019-03-31T19:10:33.890Z,10.40
2019-03-31T19:13:17.994Z,7.30
2019-03-31T19:15:51.134Z,15.57
2019-03-31T19:18:22.763Z,12.73
2019-03-31T19:21:11.147Z,14.83
2019-03-31T19:23:38.457Z,11.03
2019-03-31T19:26:23.245Z,11.53
2019-03-31T19:28:49.931Z,20.33
2019-03-31T19:31:21.624Z,19.80
2019-03-31T19:34:00.291Z,14.60
2019-03-31T19:36:35.931Z,12.87
2019-03-31T19:39:14.801Z,14.70
2019-03-31T19:42:00.243Z,21.03
2019-03-31T19:44:28.576Z,17.37
2019-03-31T19:46:57.928Z,13.10
2019-03-31T19:49:35.327Z,21.20
2019-03-31T19:52:21.909Z,12.80
2019-03-31T19:54:53.601Z,18.27
2019-03-31T19:57:25.160Z,20.13
2019-03-31T19:59:53.567Z,20.00
2019-03-31T20:02:29.105Z,17.07
2019-03-31T20:05:11.056Z,19.57
2019-03-31T20:07:45.242Z,14.23
2019-03-31T20:10:14.468Z,15.93
2019-03-31T20:12:49.112Z,15.00
2019-03-31T20:15:17.800Z,14.57
2019-03-31T20:17:49.184Z,17.30
2019-03-31T20:20:23.991Z,18.40
2019-03-31T20:22:56.123Z,14.87
2019-03-31T20:25:42.722Z,20.50
2019-03-31T20:28:14.936Z,12.17
2019-03-31T20:31:01.810Z,11.53
2019-03-31T20:33:38.993Z,11.87
2019-03-31T20:36:10.225Z,11.90
2019-03-31T20:38:56.925Z,16.30
2019-03-31T20:41:44.243Z,9.47
2019-03-31T20:44:10.955Z,12.53
2019-03-31T20:46:37.432Z,17.70
2019-03-31T20:49:03.765Z,13.93
2019-03-31T20:51:30.547Z,10.07
2019-03-31T20:53:56.889Z,13.40
2019-03-31T20:56:23.287Z,15.03
2019-03-31T20:58:49.959Z,16.43
2019-03-31T21:01:16.601Z,12.50
2019-03-31T21:03:42.941Z,12.53
2019-03-31T21:06:09.555Z,14.70
2019-03-31T21:08:37.756Z,17.70
2019-03-31T21:11:04.793Z,14.23
2019-03-31T21:13:31.436Z,10.90
2019-03-31T21:15:58.163Z,15.20
2019-03-31T21:18:24.556Z,10.10
2019-03-31T21:20:51.225Z,13.77
2019-03-31T21:23:17.596Z,12.77
2019-03-31T21:25:43.933Z,16.47
2019-03-31T21:28:10.568Z,13.97
2019-03-31T21:30:37.370Z,14.77
2019-03-31T21:33:04.011Z,11.03
2019-03-31T21:35:30.362Z,12.07
2019-03-31T21:37:56.832Z,13.57
2019-03-31T21:40:23.204Z,10.70
2019-03-31T21:42:49.675Z,8.83
2019-03-31T21:45:15.990Z,12.87
2019-03-31T21:47:42.403Z,11.53
2019-03-31T21:50:09.070Z,16.47
2019-03-31T21:52:35.396Z,8.43
2019-03-31T21:55:03.498Z,19.50
2019-03-31T21:57:30.199Z,17.17
2019-03-31T21:59:56.557Z,15.50
2019-03-31T22:02:22.896Z,11.27
2019-03-31T22:04:49.218Z,9.53
2019-03-31T22:07:15.568Z,20.97
2019-03-31T22:09:41.914Z,13.57
2019-03-31T22:12:08.258Z,13.40
2019-03-31T22:14:34.917Z,10.33
2019-03-31T22:17:01.567Z,7.50
2019-03-31T22:19:27.911Z,13.40
2019-03-31T22:21:54.348Z,12.43
2019-03-31T22:24:20.677Z,10.17
2019-03-31T22:26:46.989Z,11.80
2019-03-31T22:29:13.844Z,18.13
2019-03-31T22:31:40.178Z,14.57
2019-03-31T22:34:06.650Z,13.43
2019-03-31T22:36:33.016Z,11.87
2019-03-31T22:38:59.680Z,9.83
2019-03-31T22:41:26.035Z,9.83
2019-03-31T22:43:52.729Z,11.77
2019-03-31T22:46:19.067Z,10.30
2019-03-31T22:48:45.426Z,19.03
2019-03-31T22:51:11.860Z,14.13
2019-03-31T22:53:38.181Z,11.10
2019-03-31T22:56:05.102Z,8.70
2019-03-31T22:58:31.434Z,9.10
2019-03-31T23:00:58.197Z,10.97
2019-03-31T23:03:24.818Z,11.20
2019-03-31T23:05:51.457Z,11.40
2019-03-31T23:08:17.925Z,10.57
2019-03-31T23:10:44.629Z,7.77
2019-03-31T23:13:11.782Z,7.20
2019-03-31T23:15:38.423Z,8.40
2019-03-31T23:18:04.777Z,10.87
2019-03-31T23:20:32.234Z,15.40
2019-03-31T23:22:58.967Z,12.20
2019-03-31T23:25:25.388Z,12.30
2019-03-31T23:27:51.836Z,15.13
2019-03-31T23:30:18.253Z,14.70
2019-03-31T23:32:44.582Z,11.33
2019-03-31T23:35:12.014Z,11.23
2019-03-31T23:37:40.650Z,9.57
2019-03-31T23:40:07.505Z,19.10
2019-03-31T23:42:33.850Z,10.93
2019-03-31T23:45:00.551Z,10.50
2019-03-31T23:47:27.055Z,11.20
2019-03-31T23:49:53.441Z,11.23
2019-03-31T23:52:20.166Z,6.53
2019-03-31T23:54:46.518Z,21.77
2019-03-31T23:57:12.943Z,28.43
2019-03-31T23:59:39.549Z,15.53
